Time;durP1;ratioP1;P1;durP2;ratioP2;P2;SDS_P1;SDS_P2;PMS_P1;PMS_P2;Temp;Humidity;BMP_temperature;BMP_pressure;BME280_temperature;BME280_humidity;BME280_pressure;Samples;Min_cycle;Max_cycle;Signal;HPM_P1;HPM_P2
2022/05/05 00:01:41;;;;;;;6.45;5.47;;;12.50;99.60;;;;;;4161673;28;20069;-73
2022/05/05 00:03:43;;;;;;;5.90;5.43;;;12.50;99.70;;;;;;4164669;28;20101;-74
2022/05/05 00:05:45;;;;;;;5.97;4.97;;;12.40;99.70;;;;;;4164201;28;20088;-73
2022/05/05 00:07:47;;;;;;;6.47;5.30;;;12.40;99.90;;;;;;4163123;28;20068;-73
2022/05/05 00:09:48;;;;;;;5.57;5.07;;;12.40;99.90;;;;;;4166461;28;20100;-74
2022/05/05 00:14:24;;;;;;;7.38;6.05;;;12.40;99.90;;;;;;4166680;28;20064;-73
2022/05/05 00:16:27;;;;;;;6.30;5.68;;;12.40;99.90;;;;;;4165164;28;20056;-73
2022/05/05 00:18:28;;;;;;;6.47;5.95;;;12.30;99.90;;;;;;4164337;28;20066;-74
2022/05/05 00:20:30;;;;;;;5.72;5.22;;;12.30;99.90;;;;;;4164766;28;20096;-73
2022/05/05 00:22:32;;;;;;;5.78;4.93;;;12.30;99.90;;;;;;4165625;28;20144;-73
2022/05/05 00:24:34;;;;;;;6.55;6.07;;;12.20;99.90;;;;;;4165749;28;20061;-73
2022/05/05 00:26:35;;;;;;;7.78;5.82;;;12.20;99.90;;;;;;4165864;28;20064;-72
2022/05/05 00:28:37;;;;;;;6.50;6.00;;;12.20;99.90;;;;;;4165495;28;20058;-73
2022/05/05 00:30:39;;;;;;;7.38;5.78;;;12.20;99.90;;;;;;4165928;28;20097;-74
2022/05/05 00:32:40;;;;;;;9.45;5.68;;;12.10;99.90;;;;;;4164187;28;20155;-74
2022/05/05 00:34:42;;;;;;;5.90;5.35;;;12.10;99.90;;;;;;4165412;28;20061;-74
2022/05/05 00:36:44;;;;;;;6.07;5.40;;;12.10;99.90;;;;;;4164318;28;20801;-74
2022/05/05 00:38:46;;;;;;;6.38;5.70;;;12.00;99.90;;;;;;4167932;28;20855;-74
2022/05/05 00:40:47;;;;;;;8.52;5.45;;;12.00;99.90;;;;;;4164194;28;20957;-74
2022/05/05 00:42:49;;;;;;;6.18;5.57;;;11.90;99.90;;;;;;4164660;28;20164;-74
2022/05/05 00:44:51;;;;;;;6.03;5.43;;;11.80;99.90;;;;;;4165554;28;20120;-74
2022/05/05 00:46:53;;;;;;;6.00;5.50;;;11.80;99.90;;;;;;4163386;28;20062;-74
2022/05/05 00:48:55;;;;;;;5.68;5.05;;;11.80;99.90;;;;;;4165249;28;20104;-72
2022/05/05 00:50:57;;;;;;;5.95;5.30;;;11.70;99.90;;;;;;4163016;28;20088;-73
2022/05/05 00:52:59;;;;;;;5.93;5.28;;;11.70;99.90;;;;;;4172337;22;20160;-72
2022/05/05 00:55:01;;;;;;;5.90;5.50;;;11.70;99.90;;;;;;4175675;28;20068;-73
2022/05/05 00:57:03;;;;;;;7.78;6.28;;;11.60;99.90;;;;;;4176724;28;20068;-73
2022/05/05 00:59:05;;;;;;;7.28;5.40;;;11.50;99.90;;;;;;4174646;28;20057;-73
2022/05/05 01:01:07;;;;;;;6.20;5.70;;;11.40;99.90;;;;;;4175367;28;20053;-73
2022/05/05 01:03:10;;;;;;;6.63;6.05;;;11.40;99.90;;;;;;4176188;28;20063;-73
2022/05/05 01:05:12;;;;;;;8.48;6.43;;;11.40;99.90;;;;;;4176007;28;20096;-73
2022/05/05 01:07:15;;;;;;;6.30;5.75;;;11.40;99.90;;;;;;4174014;28;20149;-73
2022/05/05 01:09:17;;;;;;;10.05;6.03;;;11.30;99.90;;;;;;4178475;28;20077;-73
2022/05/05 01:11:19;;;;;;;6.88;6.03;;;11.30;99.90;;;;;;4179501;28;20132;-72
2022/05/05 01:13:21;;;;;;;8.13;6.07;;;11.30;99.90;;;;;;4175798;28;20057;-73
2022/05/05 01:15:23;;;;;;;7.53;5.65;;;11.30;99.90;;;;;;4174812;28;20068;-73
2022/05/05 01:17:28;;;;;;;8.55;6.50;;;11.30;99.90;;;;;;4172719;28;20124;-73
2022/05/05 01:22:53;;;;;;;6.07;5.40;;;11.30;99.90;;;;;;4178683;28;20052;-73
2022/05/05 01:29:35;;;;;;;9.30;6.30;;;11.20;99.90;;;;;;4173854;28;20062;-73
2022/05/05 01:31:38;;;;;;;6.55;5.28;;;11.20;99.90;;;;;;4169137;28;20092;-74
2022/05/05 01:33:40;;;;;;;5.75;5.25;;;11.10;99.90;;;;;;4170361;28;20092;-72
2022/05/05 01:35:43;;;;;;;6.05;5.53;;;11.20;99.90;;;;;;4172756;28;20061;-73
2022/05/05 01:37:45;;;;;;;7.90;5.68;;;11.20;99.90;;;;;;4172463;28;20053;-73
2022/05/05 01:39:48;;;;;;;6.00;5.47;;;11.30;99.90;;;;;;4177482;28;20064;-73
2022/05/05 01:41:49;;;;;;;9.85;7.47;;;11.30;99.90;;;;;;4176530;28;20064;-73
2022/05/05 01:43:51;;;;;;;12.60;8.93;;;11.30;99.90;;;;;;4175054;28;20064;-73
2022/05/05 01:45:52;;;;;;;9.35;7.47;;;11.20;99.90;;;;;;4178037;28;20057;-74
2022/05/05 01:47:54;;;;;;;8.60;7.43;;;11.20;99.90;;;;;;4173946;28;20069;-73
2022/05/05 01:50:00;;;;;;;9.68;8.18;;;11.10;99.90;;;;;;4177488;28;20710;-73
2022/05/05 01:52:02;;;;;;;11.48;9.90;;;11.10;99.90;;;;;;4175869;28;20062;-73
2022/05/05 01:54:03;;;;;;;78.32;44.63;;;11.10;99.90;;;;;;4171795;28;20135;-74
2022/05/05 01:56:14;;;;;;;57.75;29.60;;;11.20;99.90;;;;;;4175203;28;20058;-73
2022/05/05 01:58:16;;;;;;;47.53;27.67;;;11.30;99.90;;;;;;4176084;28;20061;-73
2022/05/05 02:00:18;;;;;;;39.28;23.42;;;11.30;99.90;;;;;;4175245;28;20585;-73
2022/05/05 02:02:19;;;;;;;47.83;28.92;;;11.30;99.90;;;;;;4175843;28;20042;-73
2022/05/05 02:04:21;;;;;;;34.50;21.30;;;11.40;99.90;;;;;;4174627;28;20130;-73
2022/05/05 02:06:23;;;;;;;22.50;14.23;;;11.40;99.90;;;;;;4175708;28;20573;-73
2022/05/05 02:08:24;;;;;;;6.78;5.70;;;11.40;99.90;;;;;;4175047;28;20060;-73
2022/05/05 02:10:26;;;;;;;6.40;5.20;;;11.40;99.90;;;;;;4174520;28;20065;-72
2022/05/05 02:12:30;;;;;;;7.88;6.32;;;11.40;99.90;;;;;;4174934;28;20248;-73
2022/05/05 02:14:31;;;;;;;5.32;4.82;;;11.40;99.90;;;;;;4172603;28;20062;-74
2022/05/05 02:16:33;;;;;;;9.35;5.38;;;11.40;99.90;;;;;;4173949;28;20069;-73
2022/05/05 02:18:35;;;;;;;6.22;5.65;;;11.30;99.90;;;;;;4174042;28;20104;-73
2022/05/05 02:20:38;;;;;;;6.82;6.25;;;11.30;99.90;;;;;;4171100;28;20072;-73
2022/05/05 02:22:40;;;;;;;9.68;8.68;;;11.30;99.90;;;;;;4173710;28;20132;-73
2022/05/05 02:24:42;;;;;;;9.85;8.90;;;11.20;99.90;;;;;;4178790;28;20068;-73
2022/05/05 02:26:44;;;;;;;11.27;9.30;;;11.10;99.90;;;;;;4169028;28;20955;-73
2022/05/05 02:28:46;;;;;;;7.72;6.95;;;11.10;99.90;;;;;;4173589;28;20153;-73
2022/05/05 02:30:48;;;;;;;8.10;7.40;;;11.10;99.90;;;;;;4168883;28;20153;-73
2022/05/05 02:32:50;;;;;;;7.88;7.05;;;11.10;99.90;;;;;;4174137;28;20041;-73
2022/05/05 02:34:52;;;;;;;8.63;6.80;;;11.00;99.90;;;;;;4174145;28;20154;-73
2022/05/05 02:39:14;;;;;;;7.55;6.85;;;10.90;99.90;;;;;;4169450;28;20608;-73
2022/05/05 02:41:15;;;;;;;8.30;7.03;;;10.90;99.90;;;;;;4169692;28;20054;-73
2022/05/05 02:43:17;;;;;;;10.88;6.70;;;11.00;99.90;;;;;;4169212;28;20857;-73
2022/05/05 02:45:18;;;;;;;11.70;7.20;;;11.00;99.90;;;;;;4171563;28;20109;-73
2022/05/05 02:47:20;;;;;;;7.70;6.93;;;11.00;99.90;;;;;;4169708;28;20058;-73
2022/05/05 02:49:22;;;;;;;8.82;6.82;;;10.90;99.90;;;;;;4180454;28;20107;-73
2022/05/05 02:51:23;;;;;;;7.90;6.22;;;10.90;99.90;;;;;;4170344;28;20064;-73
2022/05/05 02:55:45;;;;;;;10.50;6.32;;;10.90;99.90;;;;;;4169885;28;20848;-72
2022/05/05 02:57:47;;;;;;;7.78;6.97;;;10.90;99.90;;;;;;4170684;28;20062;-73
2022/05/05 02:59:50;;;;;;;8.73;6.93;;;10.90;99.90;;;;;;4172802;28;20962;-73
2022/05/05 03:01:52;;;;;;;7.57;6.88;;;10.70;99.90;;;;;;4175146;28;20068;-73
2022/05/05 03:03:57;;;;;;;8.15;7.40;;;10.60;99.90;;;;;;4175272;28;20639;-72
2022/05/05 03:05:59;;;;;;;7.78;6.82;;;10.50;99.90;;;;;;4176327;28;20065;-73
2022/05/05 03:08:01;;;;;;;9.70;6.07;;;10.50;99.90;;;;;;4175109;28;20065;-73
2022/05/05 03:10:03;;;;;;;6.80;6.20;;;10.40;99.90;;;;;;4174968;28;20068;-73
2022/05/05 03:12:06;;;;;;;7.30;6.70;;;10.50;99.90;;;;;;4174221;28;20058;-73
2022/05/05 03:14:08;;;;;;;7.45;6.85;;;10.50;99.90;;;;;;4173734;28;20062;-73
2022/05/05 03:16:09;;;;;;;9.77;6.60;;;10.50;99.90;;;;;;4175488;28;20050;-73
2022/05/05 03:18:11;;;;;;;9.10;6.65;;;10.50;99.90;;;;;;4176139;28;20064;-74
2022/05/05 03:20:13;;;;;;;9.13;7.57;;;10.40;99.90;;;;;;4174126;28;20062;-74
2022/05/05 03:22:14;;;;;;;6.50;6.00;;;10.50;99.90;;;;;;4172644;28;20058;-74
2022/05/05 03:24:16;;;;;;;6.82;6.25;;;10.60;99.90;;;;;;4174494;28;20667;-73
2022/05/05 03:26:17;;;;;;;7.93;6.38;;;10.60;99.90;;;;;;4172819;28;20709;-73
2022/05/05 03:28:19;;;;;;;7.10;5.93;;;10.70;99.90;;;;;;4176698;28;20837;-73
2022/05/05 03:30:21;;;;;;;8.23;5.78;;;10.80;99.90;;;;;;4175779;28;20064;-74
2022/05/05 03:32:22;;;;;;;6.22;5.72;;;10.90;99.90;;;;;;4170140;28;20056;-74
2022/05/05 03:34:24;;;;;;;5.80;5.40;;;10.90;99.90;;;;;;4174862;28;20076;-75
2022/05/05 03:36:26;;;;;;;5.90;5.18;;;10.90;99.90;;;;;;4173442;28;20147;-74
2022/05/05 03:38:27;;;;;;;6.18;5.70;;;10.90;99.90;;;;;;4168175;28;20058;-73
2022/05/05 03:40:29;;;;;;;7.03;6.38;;;10.90;99.90;;;;;;4173208;28;20054;-74
2022/05/05 03:42:31;;;;;;;6.68;6.18;;;11.00;99.90;;;;;;4176881;28;20127;-73
2022/05/05 03:44:32;;;;;;;7.47;6.78;;;11.00;99.90;;;;;;4178229;28;20704;-72
2022/05/05 03:46:34;;;;;;;7.38;6.35;;;10.90;99.90;;;;;;4175962;28;20064;-73
2022/05/05 03:48:36;;;;;;;8.20;6.50;;;10.80;99.90;;;;;;4176929;28;20063;-74
2022/05/05 03:50:38;;;;;;;9.75;6.68;;;10.90;99.90;;;;;;4177247;28;20061;-74
2022/05/05 03:52:39;;;;;;;9.75;6.78;;;10.90;99.90;;;;;;4174832;28;20065;-75
2022/05/05 03:54:41;;;;;;;6.88;6.18;;;11.00;99.90;;;;;;4174320;28;20041;-73
2022/05/05 03:56:44;;;;;;;7.57;6.03;;;11.00;99.90;;;;;;4173318;28;20972;-73
2022/05/05 03:58:45;;;;;;;6.85;6.30;;;11.00;99.90;;;;;;4174324;28;20131;-73
2022/05/05 04:00:47;;;;;;;6.90;6.25;;;11.10;99.90;;;;;;4173149;28;20057;-74
2022/05/05 04:03:30;;;;;;;7.30;6.80;;;11.00;99.90;;;;;;4173142;28;20053;-74
2022/05/05 04:05:11;;;;;;;7.07;6.40;;;11.00;99.90;;;;;;4176841;28;20049;-73
2022/05/05 04:07:12;;;;;;;6.97;6.38;;;11.00;99.90;;;;;;4176049;28;20851;-74
2022/05/05 04:09:14;;;;;;;7.88;7.07;;;11.00;99.90;;;;;;4174868;28;20054;-73
2022/05/05 04:11:16;;;;;;;7.97;7.20;;;11.00;99.90;;;;;;4175917;28;20860;-74
2022/05/05 04:13:19;;;;;;;9.07;6.50;;;11.10;99.90;;;;;;4173843;28;20061;-73
2022/05/05 04:15:21;;;;;;;7.25;6.68;;;11.10;99.90;;;;;;4176928;28;20133;-74
2022/05/05 04:17:22;;;;;;;6.90;6.35;;;11.10;99.90;;;;;;4170519;28;20103;-74
2022/05/05 04:19:24;;;;;;;7.93;7.13;;;11.10;99.90;;;;;;4174242;28;20981;-74
2022/05/05 04:21:26;;;;;;;8.73;6.47;;;11.20;99.90;;;;;;4173801;28;20058;-73
2022/05/05 04:23:28;;;;;;;8.15;6.80;;;11.20;99.90;;;;;;4170286;28;20136;-73
2022/05/05 04:25:46;;;;;;;8.80;7.15;;;11.30;99.90;;;;;;4174131;28;20058;-73
2022/05/05 04:27:49;;;;;;;13.25;7.32;;;11.30;99.90;;;;;;4173717;28;20097;-74
2022/05/05 04:29:51;;;;;;;6.90;6.40;;;11.40;99.90;;;;;;4173723;28;20066;-73
2022/05/05 04:31:53;;;;;;;7.22;6.53;;;11.40;99.90;;;;;;4172874;28;20061;-73
2022/05/05 04:33:55;;;;;;;10.40;8.63;;;11.40;99.90;;;;;;4173927;28;20057;-73
2022/05/05 04:35:57;;;;;;;15.23;6.30;;;11.40;99.90;;;;;;4173494;28;20169;-72
2022/05/05 04:37:58;;;;;;;7.40;6.75;;;11.50;99.90;;;;;;4176298;28;20062;-72
2022/05/05 04:40:00;;;;;;;8.23;7.43;;;11.50;99.90;;;;;;4173896;28;20050;-72
2022/05/05 04:42:02;;;;;;;6.68;6.07;;;11.50;99.90;;;;;;4177316;28;20061;-72
2022/05/05 04:44:04;;;;;;;7.90;6.05;;;11.50;99.90;;;;;;4174843;28;20172;-73
2022/05/05 04:46:06;;;;;;;8.05;5.78;;;11.50;99.90;;;;;;4175750;28;20061;-72
2022/05/05 04:48:08;;;;;;;7.18;6.50;;;11.50;99.90;;;;;;4177625;28;20624;-73
2022/05/05 04:50:10;;;;;;;6.45;5.97;;;11.50;99.90;;;;;;4182068;28;20062;-72
2022/05/05 04:52:11;;;;;;;6.18;5.57;;;11.50;99.90;;;;;;4175104;28;20065;-72
2022/05/05 04:54:13;;;;;;;6.45;5.97;;;11.50;99.90;;;;;;4174343;28;20814;-72
2022/05/05 04:56:14;;;;;;;9.88;6.25;;;11.60;99.90;;;;;;4172766;28;20061;-72
2022/05/05 04:58:16;;;;;;;11.45;6.57;;;11.60;99.90;;;;;;4173177;28;20054;-72
2022/05/05 05:00:18;;;;;;;7.28;6.63;;;11.60;99.90;;;;;;4169754;28;20119;-73
2022/05/05 05:02:20;;;;;;;6.10;5.70;;;11.70;99.90;;;;;;4174265;28;20053;-72
2022/05/05 05:04:21;;;;;;;6.22;5.45;;;11.70;99.90;;;;;;4181816;28;20057;-72
2022/05/05 05:06:23;;;;;;;7.63;6.15;;;11.70;99.90;;;;;;4174778;28;20062;-72
2022/05/05 05:08:25;;;;;;;6.57;6.07;;;11.80;99.90;;;;;;4171192;28;20097;-72
2022/05/05 05:10:26;;;;;;;7.35;6.68;;;11.80;99.90;;;;;;4169938;28;20877;-72
2022/05/05 05:12:28;;;;;;;11.43;6.85;;;11.80;99.90;;;;;;4167890;28;20053;-72
2022/05/05 05:14:30;;;;;;;9.38;6.05;;;11.90;99.90;;;;;;4174182;28;20058;-72
2022/05/05 05:16:31;;;;;;;7.05;5.88;;;11.90;99.90;;;;;;4172799;28;20064;-72
2022/05/05 05:18:42;;;;;;;6.25;5.75;;;11.90;99.90;;;;;;4174832;28;20069;-72
2022/05/05 05:20:44;;;;;;;8.88;6.43;;;12.00;99.90;;;;;;4178285;28;20193;-73
2022/05/05 05:22:46;;;;;;;9.38;6.97;;;12.10;99.90;;;;;;4175477;28;20065;-72
2022/05/05 05:24:47;;;;;;;6.95;6.25;;;12.10;99.90;;;;;;4180283;28;20060;-73
2022/05/05 05:26:49;;;;;;;9.43;7.05;;;12.20;99.90;;;;;;4176733;28;20792;-72
2022/05/05 05:28:51;;;;;;;7.00;6.25;;;12.20;99.90;;;;;;4176839;28;20057;-72
2022/05/05 05:30:52;;;;;;;7.78;6.95;;;12.10;99.90;;;;;;4175815;28;20836;-72
2022/05/05 05:32:54;;;;;;;6.97;6.30;;;12.20;99.90;;;;;;4171955;28;20064;-72
2022/05/05 05:34:56;;;;;;;6.97;6.38;;;12.20;99.90;;;;;;4174440;28;20045;-72
2022/05/05 05:36:58;;;;;;;7.28;6.65;;;12.20;99.90;;;;;;4178483;28;21366;-72
2022/05/05 05:39:00;;;;;;;6.55;6.05;;;12.20;99.90;;;;;;4172868;28;20163;-71
2022/05/05 05:41:01;;;;;;;8.40;7.60;;;12.30;99.90;;;;;;4174863;28;20068;-71
2022/05/05 05:43:04;;;;;;;9.13;7.10;;;12.20;99.90;;;;;;4173743;28;20049;-71
2022/05/05 05:45:08;;;;;;;9.02;7.85;;;12.20;99.90;;;;;;4175936;28;20156;-71
2022/05/05 05:47:10;;;;;;;8.48;7.63;;;12.10;99.90;;;;;;4173148;28;20682;-71
2022/05/05 05:49:11;;;;;;;7.82;7.15;;;12.10;99.90;;;;;;4175142;28;20058;-71
2022/05/05 05:51:13;;;;;;;7.43;6.63;;;12.10;99.90;;;;;;4173712;28;20062;-71
2022/05/05 05:53:15;;;;;;;9.52;7.82;;;12.10;99.90;;;;;;4172386;28;20057;-71
2022/05/05 05:55:17;;;;;;;9.05;8.15;;;12.20;99.90;;;;;;4175862;28;20057;-71
2022/05/05 05:57:19;;;;;;;6.47;5.95;;;12.20;99.90;;;;;;4173494;28;20089;-71
2022/05/05 05:59:20;;;;;;;8.70;6.45;;;12.30;99.90;;;;;;4170624;28;20623;-71
2022/05/05 06:03:53;;;;;;;6.20;5.60;;;12.20;99.90;;;;;;4173384;28;20058;-71
2022/05/05 06:03:56;;;;;;;5.85;5.32;;;12.20;99.90;;;;;;4174809;28;20137;-71
2022/05/05 06:05:59;;;;;;;9.32;5.57;;;12.30;99.90;;;;;;4178514;28;20057;-72
2022/05/05 06:08:02;;;;;;;6.20;5.60;;;12.30;99.90;;;;;;4172144;28;20289;-72
2022/05/05 06:10:04;;;;;;;6.55;5.80;;;12.40;99.90;;;;;;4173403;28;20069;-72
2022/05/05 06:12:06;;;;;;;6.00;5.40;;;12.50;99.90;;;;;;4168877;28;20054;-71
2022/05/05 06:14:08;;;;;;;7.45;6.78;;;12.50;99.90;;;;;;4168337;28;20139;-72
2022/05/05 06:16:12;;;;;;;8.57;6.13;;;12.60;99.90;;;;;;4178316;28;20081;-72
2022/05/05 06:18:14;;;;;;;6.75;5.63;;;12.60;99.90;;;;;;4171004;28;20064;-71
2022/05/05 06:20:16;;;;;;;6.00;5.50;;;12.50;99.90;;;;;;4174207;28;20061;-71
2022/05/05 06:22:18;;;;;;;6.88;6.18;;;12.60;99.90;;;;;;4177363;28;20052;-72
2022/05/05 06:24:19;;;;;;;10.68;7.82;;;12.70;99.90;;;;;;4173435;28;20050;-72
2022/05/05 06:26:23;;;;;;;6.70;6.10;;;12.80;99.90;;;;;;4179831;28;20062;-72
2022/05/05 06:28:25;;;;;;;6.40;5.90;;;12.90;99.90;;;;;;4173969;28;20558;-72
2022/05/05 06:30:26;;;;;;;8.05;5.90;;;13.00;99.60;;;;;;4175583;28;20173;-73
2022/05/05 06:32:28;;;;;;;6.38;5.82;;;13.10;98.60;;;;;;4173872;28;21149;-72
2022/05/05 06:34:30;;;;;;;10.93;6.80;;;13.10;98.40;;;;;;4172159;28;20136;-72
2022/05/05 06:36:31;;;;;;;8.52;5.32;;;13.20;98.80;;;;;;4174307;28;20065;-72
2022/05/05 06:38:33;;;;;;;6.07;5.57;;;13.30;98.50;;;;;;4174978;28;20131;-72
2022/05/05 06:40:35;;;;;;;5.97;5.47;;;13.40;98.40;;;;;;4172979;28;20069;-72
2022/05/05 06:42:37;;;;;;;5.85;5.25;;;13.40;97.80;;;;;;4171989;28;20093;-73
2022/05/05 06:44:38;;;;;;;5.45;4.80;;;13.40;97.00;;;;;;4176319;28;21246;-75
2022/05/05 06:46:40;;;;;;;6.13;5.45;;;13.40;97.70;;;;;;4179116;28;20152;-74
2022/05/05 06:48:42;;;;;;;5.90;5.20;;;13.40;97.30;;;;;;4176443;28;20140;-75
2022/05/05 06:50:44;;;;;;;5.50;5.05;;;13.40;97.50;;;;;;4177875;28;20276;-73
2022/05/05 06:52:45;;;;;;;7.10;4.75;;;13.40;96.80;;;;;;4174155;28;20585;-73
2022/05/05 06:54:47;;;;;;;5.90;5.40;;;13.40;97.20;;;;;;4173936;28;20053;-73
2022/05/05 06:56:49;;;;;;;5.63;5.13;;;13.30;96.90;;;;;;4177857;28;20061;-73
2022/05/05 06:58:50;;;;;;;6.07;5.47;;;13.20;96.80;;;;;;4182429;22;20053;-74
2022/05/05 07:03:13;;;;;;;9.93;6.68;;;13.20;96.40;;;;;;4174092;28;20746;-74
2022/05/05 07:05:24;;;;;;;6.63;5.43;;;13.20;96.90;;;;;;4175613;28;20062;-74
2022/05/05 07:07:25;;;;;;;6.78;6.00;;;13.10;97.40;;;;;;4173543;28;20061;-74
2022/05/05 07:11:47;;;;;;;7.00;6.32;;;13.30;97.40;;;;;;4173891;28;20188;-73
2022/05/05 07:13:49;;;;;;;8.23;7.30;;;13.20;97.10;;;;;;4170795;28;20152;-73
2022/05/05 07:15:52;;;;;;;7.07;6.47;;;13.00;97.30;;;;;;4175211;28;20794;-74
2022/05/05 07:17:54;;;;;;;9.10;6.72;;;13.00;97.80;;;;;;4172344;28;20196;-74
2022/05/05 07:19:56;;;;;;;9.88;6.70;;;13.00;98.00;;;;;;4175514;28;20057;-74
2022/05/05 07:21:58;;;;;;;7.82;7.05;;;12.90;98.50;;;;;;4173543;28;20053;-73
2022/05/05 07:23:59;;;;;;;9.48;7.68;;;12.90;98.90;;;;;;4170103;28;20096;-74
2022/05/05 07:26:01;;;;;;;8.13;6.97;;;12.90;99.30;;;;;;4172576;28;20853;-73
2022/05/05 07:28:03;;;;;;;8.70;7.90;;;13.00;99.60;;;;;;4173783;28;20092;-74
2022/05/05 07:30:05;;;;;;;9.50;7.53;;;13.00;99.70;;;;;;4179138;28;20061;-74
2022/05/05 07:32:08;;;;;;;13.25;7.68;;;13.00;99.90;;;;;;4172418;28;20782;-73
2022/05/05 07:34:10;;;;;;;8.77;8.00;;;13.00;99.90;;;;;;4169129;28;20115;-74
2022/05/05 07:36:12;;;;;;;9.70;8.80;;;13.00;99.90;;;;;;4176774;28;20093;-72
2022/05/05 07:38:14;;;;;;;10.35;8.38;;;12.90;99.90;;;;;;4176936;28;20067;-73
2022/05/05 07:40:21;;;;;;;11.90;8.85;;;12.80;99.90;;;;;;4168256;28;20237;-74
2022/05/05 07:42:23;;;;;;;9.23;8.32;;;12.90;99.90;;;;;;4171290;28;20152;-74
2022/05/05 07:44:25;;;;;;;10.23;9.23;;;13.10;99.90;;;;;;4167080;28;20825;-74
2022/05/05 07:46:27;;;;;;;12.85;8.70;;;13.20;99.90;;;;;;4179951;28;20058;-73
2022/05/05 07:48:29;;;;;;;9.60;8.70;;;13.20;99.90;;;;;;4170408;28;20092;-73
2022/05/05 07:50:31;;;;;;;10.05;9.05;;;13.30;99.90;;;;;;4170866;28;20046;-73
2022/05/05 07:52:32;;;;;;;10.50;9.07;;;13.20;99.90;;;;;;4166093;28;20236;-74
2022/05/05 07:54:34;;;;;;;12.50;10.45;;;13.10;99.90;;;;;;4174578;28;20057;-73
2022/05/05 07:56:36;;;;;;;10.40;9.40;;;13.10;99.90;;;;;;4169417;28;20053;-73
2022/05/05 07:58:38;;;;;;;9.57;8.52;;;13.00;99.90;;;;;;4174382;28;20088;-74
2022/05/05 08:00:39;;;;;;;11.43;10.32;;;13.00;99.90;;;;;;4169373;28;20272;-73
2022/05/05 08:02:41;;;;;;;14.27;10.32;;;13.00;99.90;;;;;;4169806;28;20100;-73
2022/05/05 08:04:44;;;;;;;12.68;10.85;;;13.10;99.90;;;;;;4173359;28;20111;-72
2022/05/05 08:06:46;;;;;;;12.32;10.35;;;13.10;99.60;;;;;;4173606;28;20064;-74
2022/05/05 08:08:48;;;;;;;12.10;8.93;;;13.10;99.90;;;;;;4173160;28;20872;-74
2022/05/05 08:10:53;;;;;;;11.35;10.13;;;13.20;99.90;;;;;;4176554;28;20734;-74
2022/05/05 08:12:55;;;;;;;10.23;9.23;;;13.30;99.40;;;;;;4175724;28;20124;-74
2022/05/05 08:14:57;;;;;;;10.30;9.30;;;13.30;99.20;;;;;;4178404;28;20050;-74
2022/05/05 08:16:58;;;;;;;10.90;8.90;;;13.30;99.50;;;;;;4173693;28;20075;-74
2022/05/05 08:19:00;;;;;;;12.63;9.32;;;13.50;99.30;;;;;;4175336;28;20103;-75
2022/05/05 08:21:02;;;;;;;16.20;9.82;;;13.60;99.80;;;;;;4176748;28;20068;-75
2022/05/05 08:23:04;;;;;;;13.32;10.73;;;13.90;98.90;;;;;;4174648;28;20773;-74
2022/05/05 08:29:46;;;;;;;9.45;8.10;;;14.20;97.10;;;;;;4175978;28;20053;-74
2022/05/05 08:31:48;;;;;;;10.52;8.82;;;14.40;96.90;;;;;;4176500;28;20168;-74
2022/05/05 08:33:50;;;;;;;12.43;8.52;;;14.40;96.20;;;;;;4173861;28;20147;-74
2022/05/05 08:35:52;;;;;;;8.75;7.88;;;14.50;96.40;;;;;;4175552;28;20663;-74
2022/05/05 08:37:54;;;;;;;8.65;7.75;;;14.40;95.60;;;;;;4174415;28;20064;-74
2022/05/05 08:39:56;;;;;;;9.82;7.68;;;14.40;96.10;;;;;;4180038;28;20046;-74
2022/05/05 08:41:59;;;;;;;8.85;8.02;;;14.40;96.40;;;;;;4175225;28;20884;-74
2022/05/05 08:44:01;;;;;;;10.27;8.32;;;14.40;96.30;;;;;;4175320;28;20073;-74
2022/05/05 08:46:03;;;;;;;13.10;8.65;;;14.50;95.60;;;;;;4175818;28;20058;-73
2022/05/05 08:48:07;;;;;;;8.68;7.88;;;14.60;95.60;;;;;;4170848;28;20156;-74
2022/05/05 08:50:12;;;;;;;9.93;8.95;;;14.70;95.60;;;;;;4171818;28;20092;-74
2022/05/05 08:52:21;;;;;;;10.75;8.70;;;14.90;94.20;;;;;;4171068;28;20062;-74
2022/05/05 08:54:25;;;;;;;10.70;9.23;;;14.90;94.50;;;;;;4171544;28;20061;-74
2022/05/05 08:56:27;;;;;;;11.35;9.77;;;14.90;94.60;;;;;;4171770;28;20181;-74
2022/05/05 08:58:29;;;;;;;10.32;8.27;;;14.90;93.80;;;;;;4174077;28;20155;-75
2022/05/05 09:00:31;;;;;;;10.15;9.10;;;14.90;93.80;;;;;;4167035;28;20058;-74
2022/05/05 09:02:33;;;;;;;10.40;9.13;;;14.80;94.20;;;;;;4174236;28;20100;-73
2022/05/05 09:04:35;;;;;;;12.43;10.00;;;14.80;93.80;;;;;;4171588;28;20108;-74
2022/05/05 09:06:46;;;;;;;12.45;10.77;;;14.70;93.70;;;;;;4169583;28;20139;-75
2022/05/05 09:08:48;;;;;;;14.55;10.85;;;14.80;93.70;;;;;;4170600;28;20729;-74
2022/05/05 09:10:50;;;;;;;11.80;9.52;;;14.90;93.90;;;;;;4170165;28;20153;-75
2022/05/05 09:13:10;;;;;;;12.43;9.68;;;14.90;93.80;;;;;;4172198;28;20057;-74
2022/05/05 09:15:13;;;;;;;12.13;10.35;;;15.00;92.90;;;;;;4174372;28;20061;-75
2022/05/05 09:17:22;;;;;;;11.90;9.90;;;14.90;93.10;;;;;;4172302;28;20133;-75
2022/05/05 09:19:24;;;;;;;14.13;9.13;;;14.90;93.50;;;;;;4180356;28;20100;-75
2022/05/05 09:21:34;;;;;;;9.75;8.88;;;14.90;93.50;;;;;;4179389;28;20144;-75
2022/05/05 09:26:04;;;;;;;11.65;9.48;;;14.70;94.30;;;;;;4145902;28;20176;-75
2022/05/05 09:28:19;;;;;;;16.02;11.02;;;14.70;94.10;;;;;;4173297;28;20071;-75
2022/05/05 09:30:21;;;;;;;13.55;10.73;;;14.70;94.00;;;;;;4172992;28;20137;-75
2022/05/05 09:32:47;;;;;;;13.60;11.43;;;14.60;93.90;;;;;;4174753;28;20120;-75
2022/05/05 09:34:59;;;;;;;14.00;11.65;;;14.60;93.40;;;;;;4176378;28;20062;-76
2022/05/05 09:37:20;;;;;;;18.02;12.88;;;14.60;93.70;;;;;;4177165;28;20631;-75
2022/05/05 09:39:22;;;;;;;;;;;14.50;93.80;;;;;;4177002;28;20064;-75
2022/05/05 09:41:34;;;;;;;11.88;10.57;;;14.50;93.70;;;;;;4176046;28;19936;-75
2022/05/05 09:43:36;;;;;;;12.93;11.13;;;14.60;93.90;;;;;;4176186;28;20173;-75
2022/05/05 09:45:37;;;;;;;15.55;11.30;;;14.50;94.30;;;;;;4174592;28;20049;-75
2022/05/05 09:47:41;;;;;;;16.98;13.07;;;14.60;94.10;;;;;;4175007;28;20060;-75
2022/05/05 09:49:57;;;;;;;15.27;12.27;;;14.70;93.50;;;;;;4177015;28;20116;-75
2022/05/05 09:57:40;;;;;;;18.92;13.48;;;14.60;92.70;;;;;;4174571;28;20061;-75
2022/05/05 09:59:13;;;;;;;21.67;14.25;;;14.50;93.00;;;;;;4171027;28;21138;-75
2022/05/05 10:01:21;;;;;;;15.50;13.00;;;14.40;93.60;;;;;;4169584;28;20049;-75
2022/05/05 10:05:53;;;;;;;14.30;12.25;;;14.50;93.90;;;;;;4169412;28;20062;-75
2022/05/05 10:07:55;;;;;;;17.83;12.52;;;14.50;93.90;;;;;;4168385;28;20058;-75
2022/05/05 10:09:57;;;;;;;16.63;13.88;;;14.60;93.90;;;;;;4171890;28;20069;-77
2022/05/05 10:12:01;;;;;;;18.65;14.55;;;14.60;93.20;;;;;;4174288;28;20065;-75
2022/05/05 10:14:05;;;;;;;17.23;14.65;;;14.50;93.40;;;;;;4175593;28;20135;-75
2022/05/05 10:16:07;;;;;;;15.20;13.65;;;14.40;93.60;;;;;;4167970;28;20057;-75
2022/05/05 10:18:12;;;;;;;22.17;14.48;;;14.40;94.20;;;;;;4165797;28;20050;-75
2022/05/05 10:20:14;;;;;;;15.00;13.23;;;14.40;93.90;;;;;;4178272;28;20057;-75
2022/05/05 10:22:20;;;;;;;19.30;14.63;;;14.40;94.10;;;;;;4173918;28;20761;-75
2022/05/05 10:24:24;;;;;;;15.80;12.73;;;14.50;94.20;;;;;;4171242;28;20148;-75
2022/05/05 10:26:26;;;;;;;16.35;13.52;;;14.60;93.90;;;;;;4170299;28;20057;-75
2022/05/05 10:28:47;;;;;;;15.40;13.75;;;14.60;93.90;;;;;;4174107;28;20058;-75
2022/05/05 10:30:49;;;;;;;16.40;14.68;;;14.70;93.90;;;;;;4177799;28;20057;-76
2022/05/05 10:32:51;;;;;;;19.83;15.10;;;14.90;93.60;;;;;;4169184;28;20781;-76
2022/05/05 10:35:06;;;;;;;16.45;14.75;;;14.90;93.40;;;;;;4173194;28;20064;-76
2022/05/05 10:37:09;;;;;;;16.98;14.25;;;15.10;93.50;;;;;;4177423;28;20080;-76
2022/05/05 10:39:19;;;;;;;21.20;15.90;;;15.20;93.10;;;;;;4171878;28;20939;-76
2022/05/05 10:41:34;;;;;;;17.75;14.38;;;15.30;92.80;;;;;;4173894;28;20058;-75
2022/05/05 10:43:36;;;;;;;16.00;14.23;;;15.40;93.20;;;;;;4171835;28;20191;-75
2022/05/05 10:45:37;;;;;;;19.65;15.88;;;15.50;92.80;;;;;;4171493;28;20149;-75
2022/05/05 10:47:58;;;;;;;16.67;14.57;;;15.40;92.10;;;;;;4175789;28;20900;-75
2022/05/05 10:49:59;;;;;;;18.10;15.60;;;15.30;92.80;;;;;;4175007;28;20068;-75
2022/05/05 10:52:10;;;;;;;18.25;15.40;;;15.10;92.60;;;;;;4174513;28;20154;-75
2022/05/05 10:54:24;;;;;;;;;;;15.10;93.10;;;;;;4181961;28;20064;-75
2022/05/05 10:56:29;;;;;;;17.80;15.77;;;14.90;93.40;;;;;;4180803;28;20763;-75
2022/05/05 10:59:06;;;;;;;23.83;16.35;;;14.80;93.90;;;;;;4176411;28;20093;-75
2022/05/05 11:01:09;;;;;;;18.17;16.27;;;14.70;93.40;;;;;;4175455;28;20053;-75
2022/05/05 11:03:15;;;;;;;17.98;15.98;;;14.70;95.00;;;;;;4174203;28;20148;-75
2022/05/05 11:05:20;;;;;;;20.02;15.90;;;14.70;95.20;;;;;;4173775;28;20124;-75
2022/05/05 11:07:30;;;;;;;18.33;16.40;;;14.70;96.70;;;;;;4171238;28;20054;-74
2022/05/05 11:09:37;;;;;;;24.38;16.77;;;14.60;97.10;;;;;;4178117;28;20054;-75
2022/05/05 11:11:42;;;;;;;20.35;17.92;;;14.50;97.90;;;;;;4176959;28;20186;-74
2022/05/05 11:13:46;;;;;;;18.95;16.95;;;14.40;99.20;;;;;;4180482;28;20882;-74